createdAt,value
2022-07-28T00:00:16.457Z,96259.41
2022-07-28T00:02:44.057Z,96263.16
2022-07-28T00:05:12.341Z,96254.41
2022-07-28T00:07:39.857Z,96263.75
2022-07-28T00:10:08.149Z,96250.81
2022-07-28T00:12:37.085Z,96257.84
2022-07-28T00:15:05.392Z,96255.97
2022-07-28T00:17:32.888Z,96256.94
2022-07-28T00:20:00.475Z,96255.19
2022-07-28T00:22:27.967Z,96260.22
2022-07-28T00:24:55.449Z,96255.66
2022-07-28T00:27:23.042Z,96261.47
2022-07-28T00:29:52.066Z,96260.28
2022-07-28T00:32:20.396Z,96261.72
2022-07-28T00:34:48.223Z,96248.38
2022-07-28T00:37:15.767Z,96250.63
2022-07-28T00:39:43.403Z,96252.31
2022-07-28T00:42:12.206Z,96257.59
2022-07-28T00:44:42.067Z,96246.31
2022-07-28T00:47:11.831Z,96257.00
2022-07-28T00:49:39.971Z,96245.34
2022-07-28T00:52:10.012Z,96237.53
2022-07-28T00:54:37.765Z,96238.34
2022-07-28T00:57:05.768Z,96247.41
2022-07-28T00:59:33.922Z,96238.75
2022-07-28T01:02:02.885Z,96241.22
2022-07-28T01:04:32.022Z,96244.13
2022-07-28T01:07:09.556Z,96233.59
2022-07-28T01:09:48.573Z,96236.47
2022-07-28T01:12:27.840Z,96242.06
2022-07-28T01:15:02.480Z,96236.63
2022-07-28T01:17:36.147Z,96240.00
2022-07-28T01:20:14.215Z,96243.28
2022-07-28T01:22:46.695Z,96237.94
2022-07-28T01:25:22.538Z,96237.19
2022-07-28T01:27:59.169Z,96238.59
2022-07-28T01:30:35.316Z,96234.63
2022-07-28T01:33:10.733Z,96229.50
2022-07-28T01:35:48.517Z,96227.81
2022-07-28T01:38:19.413Z,96231.06
2022-07-28T01:40:48.238Z,96230.91
2022-07-28T01:43:21.405Z,96221.41
2022-07-28T01:45:50.290Z,96215.88
2022-07-28T01:48:19.990Z,96213.66
2022-07-28T01:50:49.839Z,96223.63
2022-07-28T01:53:18.756Z,96224.31
2022-07-28T01:55:48.027Z,96218.13
2022-07-28T01:58:18.108Z,96217.66
2022-07-28T02:00:51.284Z,96216.72
2022-07-28T02:03:22.386Z,96210.22
2022-07-28T02:05:53.547Z,96207.69
2022-07-28T02:08:22.836Z,96206.78
2022-07-28T02:11:09.207Z,96199.47
2022-07-28T02:13:40.168Z,96201.91
2022-07-28T02:16:10.929Z,96197.63
2022-07-28T02:18:40.182Z,96198.00
2022-07-28T02:21:08.831Z,96193.81
2022-07-28T02:23:38.630Z,96192.34
2022-07-28T02:26:10.584Z,96196.59
2022-07-28T02:28:40.148Z,96186.50
2022-07-28T02:31:14.401Z,96192.06
2022-07-28T02:33:58.479Z,96187.34
2022-07-28T02:36:30.087Z,96192.69
2022-07-28T02:39:07.073Z,96194.72
2022-07-28T02:41:39.827Z,96186.47
2022-07-28T02:44:15.792Z,96193.78
2022-07-28T02:46:47.478Z,96196.84
2022-07-28T02:49:19.007Z,96201.66
2022-07-28T02:51:48.040Z,96201.38
2022-07-28T02:54:18.428Z,96194.91
2022-07-28T02:56:53.544Z,96198.00
2022-07-28T02:59:22.827Z,96201.19
2022-07-28T03:01:52.969Z,96199.06
2022-07-28T03:04:41.060Z,96199.19
2022-07-28T03:07:11.012Z,96203.38
2022-07-28T03:09:40.415Z,96208.75
2022-07-28T03:12:08.486Z,96213.06
2022-07-28T03:14:36.109Z,96213.44
2022-07-28T03:17:06.181Z,96215.38
2022-07-28T03:19:35.215Z,96221.22
2022-07-28T03:22:02.880Z,96216.72
2022-07-28T03:24:33.308Z,96222.59
2022-07-28T03:27:05.379Z,96214.44
2022-07-28T03:29:34.225Z,96209.84
2022-07-28T03:32:02.021Z,96210.66
2022-07-28T03:34:30.950Z,96221.19
2022-07-28T03:37:03.819Z,96213.38
2022-07-28T03:39:37.035Z,96210.84
2022-07-28T03:42:05.068Z,96205.00
2022-07-28T03:44:33.121Z,96209.63
2022-07-28T03:47:00.671Z,96208.16
2022-07-28T03:49:28.138Z,96208.72
2022-07-28T03:51:56.951Z,96206.94
2022-07-28T03:54:24.747Z,96197.75
2022-07-28T03:56:52.242Z,96204.28
2022-07-28T03:59:20.380Z,96202.63
2022-07-28T04:01:48.021Z,96206.91
2022-07-28T04:04:16.045Z,96206.69
2022-07-28T04:06:43.920Z,96202.50
2022-07-28T04:09:12.748Z,96194.47
2022-07-28T04:11:40.237Z,96203.53
2022-07-28T04:14:10.058Z,96199.00
2022-07-28T04:16:40.798Z,96205.94
2022-07-28T04:19:08.306Z,96210.50
2022-07-28T04:21:35.897Z,96207.25
2022-07-28T04:24:03.356Z,96202.38
2022-07-28T04:26:32.181Z,96202.25
2022-07-28T04:28:59.683Z,96206.81
2022-07-28T04:31:31.298Z,96206.13
2022-07-28T04:33:59.980Z,96201.19
2022-07-28T04:36:27.592Z,96194.91
2022-07-28T04:38:56.610Z,96196.81
2022-07-28T04:41:24.153Z,96211.13
2022-07-28T04:43:52.984Z,96203.56
2022-07-28T04:46:20.523Z,96209.41
2022-07-28T04:48:48.136Z,96205.94
2022-07-28T04:51:15.671Z,96207.81
2022-07-28T04:53:43.257Z,96206.53
2022-07-28T04:56:11.082Z,96209.44
2022-07-28T04:58:38.558Z,96204.66
2022-07-28T05:01:07.915Z,96208.53
2022-07-28T05:03:36.528Z,96208.16
2022-07-28T05:06:04.923Z,96208.16
2022-07-28T05:08:32.405Z,96214.75
2022-07-28T05:10:59.897Z,96209.59
2022-07-28T05:13:33.413Z,96226.25
2022-07-28T05:16:02.378Z,96219.34
2022-07-28T05:18:31.218Z,96219.31
2022-07-28T05:20:58.726Z,96219.75
2022-07-28T05:23:26.184Z,96214.69
2022-07-28T05:25:54.425Z,96211.75
2022-07-28T05:28:21.926Z,96216.56
2022-07-28T05:30:49.541Z,96207.88
2022-07-28T05:33:17.439Z,96214.50
2022-07-28T05:35:53.418Z,96214.25
2022-07-28T05:38:21.236Z,96213.44
2022-07-28T05:40:48.851Z,96214.91
2022-07-28T05:43:16.747Z,96212.25
2022-07-28T05:45:44.342Z,96215.81
2022-07-28T05:48:11.987Z,96214.41
2022-07-28T05:50:39.853Z,96215.00
2022-07-28T05:53:08.747Z,96224.19
2022-07-28T05:55:36.279Z,96215.31
2022-07-28T05:58:24.454Z,96220.50
2022-07-28T06:00:52.314Z,96229.31
2022-07-28T06:03:19.876Z,96226.59
2022-07-28T06:06:14.392Z,96228.31
2022-07-28T06:08:36.383Z,96230.00
2022-07-28T06:11:09.219Z,96228.31
2022-07-28T06:13:37.075Z,96225.63
2022-07-28T06:16:08.443Z,96232.19
2022-07-28T06:18:38.709Z,96227.41
2022-07-28T06:21:06.250Z,96229.66
2022-07-28T06:23:33.787Z,96236.00
2022-07-28T06:26:02.658Z,96234.66
2022-07-28T06:28:30.166Z,96233.16
2022-07-28T06:30:57.682Z,96237.94
2022-07-28T06:33:25.324Z,96236.13
2022-07-28T06:35:52.838Z,96231.94
2022-07-28T06:38:21.116Z,96242.25
2022-07-28T06:40:48.867Z,96235.34
2022-07-28T06:43:17.741Z,96236.81
2022-07-28T06:45:45.943Z,96231.56
2022-07-28T06:48:14.136Z,96231.41
2022-07-28T06:50:42.976Z,96237.28
2022-07-28T06:53:10.602Z,96245.56
2022-07-28T06:55:38.828Z,96245.25
2022-07-28T06:58:09.127Z,96243.53
2022-07-28T07:00:38.188Z,96237.63
2022-07-28T07:03:09.589Z,96241.72
2022-07-28T07:05:37.468Z,96233.06
2022-07-28T07:08:05.379Z,96246.84
2022-07-28T07:10:32.928Z,96239.47
2022-07-28T07:13:00.424Z,96238.03
2022-07-28T07:15:28.260Z,96235.84
2022-07-28T07:17:57.120Z,96228.28
2022-07-28T07:20:24.642Z,96233.19
2022-07-28T07:22:52.193Z,96231.63
2022-07-28T07:25:20.788Z,96231.13
2022-07-28T07:27:48.429Z,96225.91
2022-07-28T07:30:17.072Z,96224.00
2022-07-28T07:32:44.975Z,96219.63
2022-07-28T07:35:13.902Z,96217.44
2022-07-28T07:37:41.848Z,96216.31
2022-07-28T07:40:10.329Z,96213.34
2022-07-28T07:42:37.935Z,96211.72
2022-07-28T07:45:06.469Z,96205.72
2022-07-28T07:47:34.037Z,96207.41
2022-07-28T07:50:04.187Z,96214.94
2022-07-28T07:52:33.689Z,96211.44
2022-07-28T07:55:01.214Z,96214.09
2022-07-28T07:57:29.705Z,96206.72
2022-07-28T07:59:57.293Z,96212.66
2022-07-28T08:02:24.830Z,96212.50
2022-07-28T08:04:52.433Z,96203.81
2022-07-28T08:07:22.013Z,96206.53
2022-07-28T08:09:51.172Z,96208.22
2022-07-28T08:12:25.095Z,96198.75
2022-07-28T08:14:53.190Z,96195.44
2022-07-28T08:17:25.551Z,96208.13
2022-07-28T08:19:53.656Z,96190.75
2022-07-28T08:22:21.170Z,96197.22
2022-07-28T08:24:48.688Z,96203.41
2022-07-28T08:27:17.705Z,96200.38
2022-07-28T08:29:45.387Z,96195.84
2022-07-28T08:32:12.992Z,96194.63
2022-07-28T08:34:40.556Z,96200.19
2022-07-28T08:37:08.523Z,96196.09
2022-07-28T08:39:37.101Z,96202.53
2022-07-28T08:42:07.101Z,96195.06
2022-07-28T08:44:42.769Z,96207.03
2022-07-28T08:47:12.171Z,96202.72
2022-07-28T08:49:42.808Z,96204.28
2022-07-28T08:52:12.416Z,96202.13
2022-07-28T08:54:43.607Z,96199.13
2022-07-28T08:57:17.040Z,96199.72
2022-07-28T08:59:46.309Z,96192.22
2022-07-28T09:02:14.168Z,96192.84
2022-07-28T09:04:43.954Z,96189.22
2022-07-28T09:07:12.120Z,96191.53
2022-07-28T09:09:40.036Z,96200.44
2022-07-28T09:12:08.274Z,96195.72
2022-07-28T09:14:36.017Z,96195.66
2022-07-28T09:17:05.457Z,96197.09
2022-07-28T09:19:34.403Z,96188.81
2022-07-28T09:22:04.376Z,96188.06
2022-07-28T09:24:37.094Z,96195.19
2022-07-28T09:27:07.754Z,96181.78
2022-07-28T09:29:36.130Z,96174.66
2022-07-28T09:32:05.483Z,96181.78
2022-07-28T09:34:41.574Z,96190.78
2022-07-28T09:37:17.541Z,96182.59
2022-07-28T09:39:47.968Z,96180.88
2022-07-28T09:42:15.967Z,96192.09
2022-07-28T09:45:00.060Z,96187.06
2022-07-28T09:47:33.269Z,96181.66
2022-07-28T09:50:01.042Z,96179.00
2022-07-28T09:52:30.323Z,96175.78
2022-07-28T09:55:01.946Z,96179.66
2022-07-28T09:57:30.921Z,96174.47
2022-07-28T10:00:01.469Z,96167.88
2022-07-28T10:02:32.504Z,96161.19
2022-07-28T10:05:01.437Z,96151.16
2022-07-28T10:07:30.120Z,96163.81
2022-07-28T10:09:59.060Z,96162.88
2022-07-28T10:12:27.878Z,96161.38
2022-07-28T10:14:56.854Z,96156.06
2022-07-28T10:17:26.319Z,96143.84
2022-07-28T10:19:57.659Z,96147.69
2022-07-28T10:22:28.437Z,96148.88
2022-07-28T10:24:57.513Z,96147.00
2022-07-28T10:27:25.962Z,96147.41
2022-07-28T10:29:59.358Z,96145.34
2022-07-28T10:32:29.493Z,96138.97
2022-07-28T10:35:02.545Z,96141.06
2022-07-28T10:37:32.685Z,96148.13
2022-07-28T10:40:10.061Z,96139.53
2022-07-28T10:42:39.556Z,96134.63
2022-07-28T10:45:10.303Z,96134.97
2022-07-28T10:47:37.864Z,96129.03
2022-07-28T10:50:08.535Z,96142.69
2022-07-28T10:52:47.386Z,96135.25
2022-07-28T10:55:21.818Z,96137.94
2022-07-28T10:58:02.034Z,96128.72
2022-07-28T11:00:55.447Z,96133.28
2022-07-28T11:03:39.972Z,96133.50
2022-07-28T11:06:30.121Z,96117.69
2022-07-28T11:08:58.747Z,96124.88
2022-07-28T11:11:45.941Z,96117.91
2022-07-28T11:14:37.169Z,96123.50
2022-07-28T11:17:24.046Z,96112.13
2022-07-28T11:22:45.590Z,96117.56
2022-07-28T11:25:21.084Z,96103.97
2022-07-28T11:28:05.843Z,96103.22
2022-07-28T11:30:55.633Z,96098.63
2022-07-28T11:33:25.086Z,96100.09
2022-07-28T11:35:57.977Z,96104.50
2022-07-28T11:38:27.888Z,96096.28
2022-07-28T11:40:57.377Z,96094.06
2022-07-28T11:43:37.466Z,96099.03
2022-07-28T11:46:34.435Z,96109.25
2022-07-28T11:49:27.778Z,96108.88
2022-07-28T11:52:09.787Z,96100.00
2022-07-28T11:54:40.671Z,96091.34
2022-07-28T11:57:10.847Z,96095.72
2022-07-28T12:00:00.165Z,96093.16
2022-07-28T12:02:31.573Z,96091.25
2022-07-28T12:05:23.634Z,96083.13
2022-07-28T12:07:53.590Z,96087.69
2022-07-28T12:10:53.966Z,96086.41
2022-07-28T12:13:28.561Z,96087.56
2022-07-28T12:15:56.145Z,96081.06
2022-07-28T12:18:24.758Z,96083.81
2022-07-28T12:20:53.743Z,96083.38
2022-07-28T12:23:38.732Z,96083.00
2022-07-28T12:26:07.653Z,96082.22
2022-07-28T12:28:37.701Z,96076.09
2022-07-28T12:31:12.430Z,96073.13
2022-07-28T12:33:40.207Z,96081.03
2022-07-28T12:36:09.259Z,96076.63
2022-07-28T12:38:37.047Z,96071.88
2022-07-28T12:41:16.468Z,96055.94
2022-07-28T12:43:51.224Z,96073.28
2022-07-28T12:46:23.672Z,96069.97
2022-07-28T12:48:56.668Z,96062.78
2022-07-28T12:51:35.573Z,96059.38
2022-07-28T12:54:04.379Z,96056.13
2022-07-28T12:56:33.719Z,96044.91
2022-07-28T12:59:06.314Z,96053.22
2022-07-28T13:01:51.351Z,96052.53
2022-07-28T13:04:40.568Z,96053.00
2022-07-28T13:07:10.644Z,96053.41
2022-07-28T13:09:41.642Z,96041.38
2022-07-28T13:12:21.835Z,96042.31
2022-07-28T13:14:52.672Z,96039.13
2022-07-28T13:17:22.047Z,96038.94
2022-07-28T13:19:50.658Z,96045.91
2022-07-28T13:22:27.604Z,96035.38
2022-07-28T13:24:56.895Z,96027.78
2022-07-28T13:27:25.930Z,96026.41
2022-07-28T13:29:53.960Z,96028.38
2022-07-28T13:32:21.587Z,96023.63
2022-07-28T13:34:49.210Z,96027.81
2022-07-28T13:37:16.782Z,96020.88
2022-07-28T13:39:44.359Z,96020.91
2022-07-28T13:42:11.977Z,96009.09
2022-07-28T13:44:42.177Z,96014.66
2022-07-28T13:47:10.091Z,96021.34
2022-07-28T13:49:38.186Z,96010.47
2022-07-28T13:52:12.927Z,96013.00
2022-07-28T13:54:41.076Z,96004.59
2022-07-28T13:57:08.648Z,96001.53
2022-07-28T13:59:37.900Z,96005.13
2022-07-28T14:02:15.050Z,95999.28
2022-07-28T14:04:45.945Z,96001.63
2022-07-28T14:07:20.562Z,96004.59
2022-07-28T14:09:50.185Z,96005.75
2022-07-28T14:12:17.754Z,96013.50
2022-07-28T14:14:48.433Z,96003.22
2022-07-28T14:17:50.232Z,96010.72
2022-07-28T14:20:11.304Z,96003.38
2022-07-28T14:22:38.908Z,95997.94
2022-07-28T14:25:07.402Z,95999.88
2022-07-28T14:27:35.168Z,95992.28
2022-07-28T14:30:04.155Z,96000.06
2022-07-28T14:32:33.565Z,95994.16
2022-07-28T14:35:02.337Z,95989.25
2022-07-28T14:37:47.103Z,95981.94
2022-07-28T14:40:18.527Z,95998.53
2022-07-28T14:42:46.031Z,95995.50
2022-07-28T14:45:14.245Z,95992.41
2022-07-28T14:47:45.348Z,95987.25
2022-07-28T14:50:13.518Z,95984.53
2022-07-28T14:52:44.752Z,95970.88
2022-07-28T14:55:12.960Z,95982.19
2022-07-28T14:57:52.107Z,95981.06
2022-07-28T15:00:23.394Z,95979.75
2022-07-28T15:02:52.916Z,95976.66
2022-07-28T15:05:21.088Z,95977.47
2022-07-28T15:07:49.370Z,95976.63
2022-07-28T15:10:17.124Z,95973.03
2022-07-28T15:12:44.804Z,95964.13
2022-07-28T15:15:12.866Z,95969.47
2022-07-28T15:17:40.522Z,95968.00
2022-07-28T15:20:11.373Z,95964.94
2022-07-28T15:22:38.929Z,95962.44
2022-07-28T15:25:07.176Z,95963.19
2022-07-28T15:27:34.657Z,95965.13
2022-07-28T15:30:03.416Z,95964.03
2022-07-28T15:32:31.622Z,95961.66
2022-07-28T15:34:59.670Z,95959.28
2022-07-28T15:37:28.548Z,95967.31
2022-07-28T15:39:56.112Z,95961.63
2022-07-28T15:42:23.679Z,95951.72
2022-07-28T15:44:53.159Z,95961.75
2022-07-28T15:47:21.998Z,95960.44
2022-07-28T15:49:49.471Z,95954.63
2022-07-28T15:52:17.004Z,95959.16
2022-07-28T15:54:47.716Z,95960.19
2022-07-28T15:57:15.210Z,95950.47
2022-07-28T15:59:50.100Z,95959.97
2022-07-28T16:02:19.291Z,95947.94
2022-07-28T16:04:53.344Z,95945.09
2022-07-28T16:07:23.289Z,95947.31
2022-07-28T16:09:54.629Z,95948.50
2022-07-28T16:12:22.774Z,95938.28
2022-07-28T16:14:54.083Z,95944.69
2022-07-28T16:17:22.534Z,95939.16
2022-07-28T16:19:51.185Z,95946.34
2022-07-28T16:22:18.919Z,95941.47
2022-07-28T16:24:46.533Z,95941.75
2022-07-28T16:27:15.752Z,95941.47
2022-07-28T16:29:43.289Z,95943.03
2022-07-28T16:32:11.169Z,95936.22
2022-07-28T16:34:38.731Z,95938.44
2022-07-28T16:37:06.366Z,95945.03
2022-07-28T16:39:34.246Z,95941.56
2022-07-28T16:42:02.753Z,95930.84
2022-07-28T16:44:32.184Z,95930.19
2022-07-28T16:46:59.798Z,95927.41
2022-07-28T16:49:27.650Z,95929.22
2022-07-28T16:51:56.049Z,95936.28
2022-07-28T16:54:23.873Z,95936.66
2022-07-28T16:56:51.787Z,95939.66
2022-07-28T16:59:19.319Z,95936.38
2022-07-28T17:01:48.256Z,95929.81
2022-07-28T17:04:17.366Z,95936.34
2022-07-28T17:06:45.289Z,95941.22
2022-07-28T17:09:15.826Z,95942.72
2022-07-28T17:11:43.772Z,95948.50
2022-07-28T17:14:12.553Z,95949.97
2022-07-28T17:16:40.338Z,95937.69
2022-07-28T17:19:09.554Z,95945.47
2022-07-28T17:21:37.392Z,95958.47
2022-07-28T17:24:05.866Z,95962.00
2022-07-28T17:29:22.421Z,95958.69
2022-07-28T17:31:50.221Z,95965.81
2022-07-28T17:34:19.415Z,95969.63
2022-07-28T17:36:48.049Z,95959.25
2022-07-28T17:39:15.511Z,95959.25
2022-07-28T17:41:43.039Z,95960.38
2022-07-28T17:44:10.509Z,95960.38
2022-07-28T17:46:38.624Z,95963.38
2022-07-28T17:49:07.901Z,95962.25
2022-07-28T17:51:37.430Z,95967.44
2022-07-28T17:54:05.402Z,95965.81
2022-07-28T17:56:36.505Z,95967.56
2022-07-28T17:59:05.943Z,95967.94
2022-07-28T18:01:33.502Z,95970.03
2022-07-28T18:04:01.337Z,95966.75
2022-07-28T18:06:34.337Z,95969.41
2022-07-28T18:09:06.332Z,95971.28
2022-07-28T18:11:35.965Z,95963.94
2022-07-28T18:14:05.577Z,95971.78
2022-07-28T18:16:34.052Z,95966.47
2022-07-28T18:19:02.155Z,95966.19
2022-07-28T18:21:29.860Z,95978.00
2022-07-28T18:23:57.397Z,95976.63
2022-07-28T18:26:26.288Z,95978.16
2022-07-28T18:28:53.770Z,95976.44
2022-07-28T18:31:21.757Z,95976.59
2022-07-28T18:33:49.350Z,95977.50
2022-07-28T18:36:16.848Z,95977.50
2022-07-28T18:38:44.323Z,95980.47
2022-07-28T18:41:11.785Z,95988.34
2022-07-28T18:43:40.583Z,95990.25
2022-07-28T18:46:08.344Z,95984.91
2022-07-28T18:48:35.900Z,95990.16
2022-07-28T18:51:03.383Z,95987.50
2022-07-28T18:53:30.906Z,95994.38
2022-07-28T18:55:59.127Z,95992.09
2022-07-28T18:58:26.663Z,95989.09
2022-07-28T19:00:55.512Z,96001.25
2022-07-28T19:03:23.074Z,96003.03
2022-07-28T19:05:53.678Z,96005.47
2022-07-28T19:08:21.511Z,96001.19
2022-07-28T19:10:49.336Z,96001.78
2022-07-28T19:13:16.846Z,96014.25
2022-07-28T19:15:44.511Z,96015.00
2022-07-28T19:18:13.412Z,96017.78
2022-07-28T19:20:41.237Z,96014.63
2022-07-28T19:23:08.751Z,96026.44
2022-07-28T19:25:37.599Z,96029.75
2022-07-28T19:28:05.404Z,96018.66
2022-07-28T19:30:33.090Z,96023.28
2022-07-28T19:33:00.787Z,96020.22
2022-07-28T19:35:30.225Z,96020.63
2022-07-28T19:37:59.882Z,96023.81
2022-07-28T19:40:29.615Z,96030.97
2022-07-28T19:42:57.444Z,96034.50
2022-07-28T19:45:25.179Z,96032.28
2022-07-28T19:47:54.459Z,96030.13
2022-07-28T19:50:22.260Z,96032.28
2022-07-28T19:52:51.239Z,96026.38
2022-07-28T19:55:18.890Z,96030.41
2022-07-28T19:57:47.141Z,96029.47
2022-07-28T20:00:17.231Z,96023.69
2022-07-28T20:02:45.729Z,96023.59
2022-07-28T20:05:13.543Z,96016.97
2022-07-28T20:07:41.080Z,96024.19
2022-07-28T20:10:10.314Z,96025.59
2022-07-28T20:12:38.083Z,96027.97
2022-07-28T20:15:06.018Z,96028.03
2022-07-28T20:17:38.917Z,96034.44
2022-07-28T20:20:08.585Z,96038.88
2022-07-28T20:22:36.201Z,96044.09
2022-07-28T20:25:03.924Z,96042.59
2022-07-28T20:27:32.784Z,96041.44
2022-07-28T20:30:09.616Z,96041.00
2022-07-28T20:32:37.796Z,96046.97
2022-07-28T20:35:06.327Z,96048.84
2022-07-28T20:37:37.313Z,96052.13
2022-07-28T20:40:06.955Z,96056.13
2022-07-28T20:42:36.690Z,96061.47
2022-07-28T20:45:05.304Z,96050.31
2022-07-28T20:47:33.272Z,96060.78
2022-07-28T20:50:00.901Z,96059.03
2022-07-28T20:52:28.592Z,96052.41
2022-07-28T20:54:56.142Z,96049.94
2022-07-28T20:57:23.891Z,96055.19
2022-07-28T20:59:52.846Z,96052.84
2022-07-28T21:02:21.384Z,96061.72
2022-07-28T21:04:50.487Z,96065.94
2022-07-28T21:08:05.093Z,96070.34
2022-07-28T21:10:07.580Z,96062.75
2022-07-28T21:12:36.942Z,96073.75
2022-07-28T21:15:07.207Z,96085.47
2022-07-28T21:17:35.297Z,96088.59
2022-07-28T21:20:02.981Z,96078.03
2022-07-28T21:22:30.784Z,96084.50
2022-07-28T21:24:59.045Z,96079.09
2022-07-28T21:27:26.571Z,96081.03
2022-07-28T21:32:20.939Z,96080.56
2022-07-28T21:34:48.566Z,96087.75
2022-07-28T21:37:16.106Z,96089.03
2022-07-28T21:39:44.202Z,96088.91
2022-07-28T21:42:11.726Z,96092.09
2022-07-28T21:44:39.245Z,96094.78
2022-07-28T21:47:07.005Z,96098.06
2022-07-28T21:49:35.876Z,96103.09
2022-07-28T21:52:03.425Z,96109.72
2022-07-28T21:54:31.018Z,96113.00
2022-07-28T21:56:58.730Z,96120.16
2022-07-28T21:59:26.347Z,96119.06
2022-07-28T22:01:53.913Z,96119.50
2022-07-28T22:04:21.874Z,96112.69
2022-07-28T22:06:50.990Z,96122.66
2022-07-28T22:09:18.493Z,96121.72
2022-07-28T22:11:46.172Z,96125.16
2022-07-28T22:14:14.065Z,96126.94
2022-07-28T22:16:41.853Z,96127.13
2022-07-28T22:19:11.760Z,96131.47
2022-07-28T22:21:39.356Z,96134.06
2022-07-28T22:24:09.719Z,96135.41
2022-07-28T22:26:37.301Z,96137.97
2022-07-28T22:29:04.820Z,96141.50
2022-07-28T22:31:32.402Z,96137.06
2022-07-28T22:33:59.969Z,96139.28
2022-07-28T22:36:27.597Z,96140.72
2022-07-28T22:38:55.524Z,96140.94
2022-07-28T22:41:24.586Z,96138.81
2022-07-28T22:43:52.233Z,96140.00
2022-07-28T22:46:19.843Z,96144.81
2022-07-28T22:48:47.544Z,96140.00
2022-07-28T22:51:16.079Z,96149.88
2022-07-28T22:53:43.572Z,96137.44
2022-07-28T22:56:11.839Z,96142.91
2022-07-28T22:58:41.010Z,96148.22
2022-07-28T23:01:08.612Z,96148.69
2022-07-28T23:03:36.753Z,96151.69
2022-07-28T23:06:05.871Z,96156.84
2022-07-28T23:08:33.489Z,96155.03
2022-07-28T23:11:01.021Z,96153.81
2022-07-28T23:13:28.612Z,96149.50
2022-07-28T23:15:57.523Z,96149.38
2022-07-28T23:18:25.056Z,96142.97
2022-07-28T23:20:52.720Z,96136.22
2022-07-28T23:23:21.147Z,96134.44
2022-07-28T23:25:48.700Z,96137.91
2022-07-28T23:28:16.266Z,96134.38
2022-07-28T23:30:45.413Z,96134.00
2022-07-28T23:33:15.629Z,96128.97
2022-07-28T23:36:01.831Z,96128.72
2022-07-28T23:38:29.370Z,96120.09
2022-07-28T23:40:56.858Z,96111.69
2022-07-28T23:43:24.350Z,96113.63
2022-07-28T23:45:51.874Z,96120.47
2022-07-28T23:48:20.712Z,96118.06
2022-07-28T23:50:48.255Z,96112.88
2022-07-28T23:53:15.757Z,96105.31
2022-07-28T23:55:45.085Z,96106.97
2022-07-28T23:58:12.580Z,96100.94
